Time;durP1;ratioP1;P1;durP2;ratioP2;P2;SDS_P1;SDS_P2;PMS_P1;PMS_P2;Temp;Humidity;BMP_temperature;BMP_pressure;BME280_temperature;BME280_humidity;BME280_pressure;Samples;Min_cycle;Max_cycle;Signal;HPM_P1;HPM_P2
2023/06/01 00:01:47;;;;;;;2.25;1.40;;;;;;;;;;5053110;28;20024;-80
2023/06/01 00:04:13;;;;;;;1.88;1.40;;;;;;;;;;5052955;28;20075;-79
2023/06/01 00:06:40;;;;;;;2.17;1.73;;;;;;;;;;5053114;28;20028;-80
2023/06/01 00:09:06;;;;;;;2.53;1.60;;;;;;;;;;5052970;28;20096;-79
2023/06/01 00:11:32;;;;;;;1.98;1.50;;;;;;;;;;5052759;28;20087;-80
2023/06/01 00:13:58;;;;;;;2.35;1.38;;;;;;;;;;5052669;28;20045;-80
2023/06/01 00:16:24;;;;;;;2.10;1.90;;;;;;;;;;5052873;28;20029;-79
2023/06/01 00:18:53;;;;;;;1.20;1.10;;;;;;;;;;5052743;28;20476;-79
2023/06/01 00:21:19;;;;;;;1.65;1.40;;;;;;;;;;5052599;28;20037;-80
2023/06/01 00:23:45;;;;;;;1.50;1.30;;;;;;;;;;5052730;28;20021;-79
2023/06/01 00:26:12;;;;;;;1.90;1.27;;;;;;;;;;5052678;28;20518;-80
2023/06/01 00:28:38;;;;;;;1.77;1.40;;;;;;;;;;5052599;28;20029;-79
2023/06/01 00:31:04;;;;;;;1.63;1.33;;;;;;;;;;5052422;28;20029;-80
2023/06/01 00:33:30;;;;;;;1.70;1.30;;;;;;;;;;5052635;28;20040;-80
2023/06/01 00:35:56;;;;;;;1.40;1.20;;;;;;;;;;5052431;28;20021;-80
2023/06/01 00:38:22;;;;;;;1.90;1.42;;;;;;;;;;5052528;28;20040;-79
2023/06/01 00:40:51;;;;;;;2.22;1.42;;;;;;;;;;5052421;28;20522;-79
2023/06/01 00:43:18;;;;;;;1.20;1.10;;;22.60;57.50;;;;;;5052489;28;20029;-80
2023/06/01 00:45:44;;;;;;;1.85;1.20;;;;;;;;;;5052401;28;20468;-80
2023/06/01 00:48:12;;;;;;;2.90;1.30;;;22.50;59.20;;;;;;5052288;28;20446;-80
2023/06/01 00:50:38;;;;;;;2.38;1.45;;;;;;;;;;5052161;28;20059;-79
2023/06/01 00:53:07;;;;;;;2.42;1.30;;;22.60;59.60;;;;;;5052144;28;20475;-80
2023/06/01 00:55:34;;;;;;;2.50;1.30;;;22.50;56.50;;;;;;5052049;28;20025;-80
2023/06/01 00:58:01;;;;;;;1.58;1.42;;;;;;;;;;5052292;28;20422;-80
2023/06/01 01:00:27;;;;;;;1.60;1.50;;;;;;;;;;5052350;28;20119;-79
2023/06/01 01:02:53;;;;;;;4.72;1.67;;;;;;;;;;5052132;28;20057;-79
2023/06/01 01:05:19;;;;;;;1.80;1.23;;;;;;;;;;5052213;28;20024;-80
2023/06/01 01:07:53;;;;;;;1.90;1.33;;;22.30;53.90;;;;;;5051854;28;20462;-80
2023/06/01 01:10:19;;;;;;;2.63;1.20;;;;;;;;;;5051928;28;20040;-79
2023/06/01 01:12:53;;;;;;;1.35;1.00;;;22.40;54.90;;;;;;5051679;28;20045;-80
2023/06/01 01:15:37;;;;;;;3.17;1.40;;;22.30;50.30;;;;;;5051949;28;20029;-80
2023/06/01 01:18:07;;;;;;;2.65;1.50;;;22.40;54.00;;;;;;5052009;28;20025;-80
2023/06/01 01:20:43;;;;;;;2.00;1.48;;;22.40;54.30;;;;;;5052072;28;20029;-80
2023/06/01 01:23:36;;;;;;;2.45;1.35;;;22.20;54.20;;;;;;5052247;28;20368;-80
2023/06/01 01:26:10;;;;;;;1.33;1.23;;;22.40;54.10;;;;;;5051814;28;20025;-80
2023/06/01 01:29:09;;;;;;;2.70;1.60;;;22.30;54.50;;;;;;5051911;28;20065;-80
2023/06/01 01:31:35;;;;;;;2.08;1.42;;;;;;;;;;5051800;28;20048;-80
2023/06/01 01:34:03;;;;;;;3.35;1.50;;;22.30;59.10;;;;;;5051843;28;20130;-79
2023/06/01 01:36:29;;;;;;;1.98;1.10;;;;;;;;;;5051916;28;20349;-80
2023/06/01 01:38:55;;;;;;;1.20;1.08;;;;;;;;;;5051846;28;20033;-79
2023/06/01 01:41:25;;;;;;;1.77;1.67;;;;;;;;;;5051689;28;20108;-80
2023/06/01 01:43:51;;;;;;;1.77;1.55;;;;;;;;;;5051965;28;20043;-80
2023/06/01 01:46:38;;;;;;;2.40;1.63;;;22.20;53.30;;;;;;5051506;28;20492;-79
2023/06/01 01:49:19;;;;;;;2.05;1.50;;;22.80;53.50;;;;;;5051722;28;20100;-80
2023/06/01 01:51:53;;;;;;;1.65;1.40;;;22.10;53.30;;;;;;5051602;28;20045;-79
2023/06/01 01:54:20;;;;;;;1.38;1.27;;;22.20;55.70;;;;;;5051615;28;20086;-79
2023/06/01 01:56:46;;;;;;;1.45;1.30;;;22.10;59.10;;;;;;5051766;28;20049;-79
2023/06/01 01:59:13;;;;;;;2.90;1.58;;;;;;;;;;5050367;28;20025;-80
2023/06/01 02:01:44;;;;;;;1.60;1.50;;;22.00;59.40;;;;;;5051549;28;20037;-80
2023/06/01 02:04:10;;;;;;;2.75;1.58;;;;;;;;;;5051487;28;20021;-79
2023/06/01 02:06:36;;;;;;;2.80;1.50;;;;;;;;;;5051404;28;20028;-79
2023/06/01 02:09:06;;;;;;;2.30;1.50;;;22.10;59.30;;;;;;5051411;28;20118;-79
2023/06/01 02:11:32;;;;;;;1.67;1.58;;;;;;;;;;5051300;28;20407;-79
2023/06/01 02:13:58;;;;;;;2.17;1.48;;;;;;;;;;5051292;28;20412;-80
2023/06/01 02:16:25;;;;;;;3.00;1.70;;;;;;;;;;5051431;28;20113;-80
2023/06/01 02:18:52;;;;;;;2.00;1.45;;;;;;;;;;5052592;28;20033;-80
2023/06/01 02:21:18;;;;;;;1.88;1.60;;;22.10;59.30;;;;;;5054896;28;20059;-79
2023/06/01 02:23:44;;;;;;;3.05;1.70;;;;;;;;;;5055003;28;20029;-80
2023/06/01 02:26:11;;;;;;;1.40;1.30;;;;;;;;;;5054832;28;20033;-80
2023/06/01 02:28:40;;;;;;;2.40;1.30;;;20.30;58.70;;;;;;5054843;28;20078;-80
2023/06/01 02:31:06;;;;;;;2.80;1.80;;;;;;;;;;5054720;28;20139;-79
2023/06/01 02:33:33;;;;;;;2.15;1.30;;;;;;;;;;5054821;28;20052;-80
2023/06/01 02:35:59;;;;;;;2.72;1.42;;;;;;;;;;5055008;28;20566;-79
2023/06/01 02:38:26;;;;;;;1.73;1.30;;;;;;;;;;5054905;28;20027;-79
2023/06/01 02:40:52;;;;;;;2.28;1.33;;;;;;;;;;5054522;28;20021;-80
2023/06/01 02:43:19;;;;;;;3.03;1.67;;;;;;;;;;5054884;28;20102;-80
2023/06/01 02:45:45;;;;;;;1.65;1.25;;;;;;;;;;5054751;28;20498;-79
2023/06/01 02:48:12;;;;;;;1.80;1.35;;;;;;;;;;5054754;28;20423;-80
2023/06/01 02:50:39;;;;;;;1.65;1.27;;;;;;;;;;5054614;28;20426;-80
2023/06/01 02:53:06;;;;;;;1.45;1.35;;;;;;;;;;5054397;28;20506;-80
2023/06/01 02:55:32;;;;;;;1.77;1.33;;;;;;;;;;5054582;28;20048;-79
2023/06/01 02:57:59;;;;;;;1.85;1.30;;;;;;;;;;5054570;28;20025;-79
2023/06/01 03:00:27;;;;;;;1.45;1.25;;;;;;;;;;5054464;28;20052;-79
2023/06/01 03:02:53;;;;;;;2.47;1.60;;;;;;;;;;5054091;28;20092;-79
2023/06/01 03:05:21;;;;;;;1.30;1.00;;;;;;;;;;5054334;28;20044;-80
2023/06/01 03:07:48;;;;;;;2.35;1.52;;;;;;;;;;5054304;28;20025;-80
2023/06/01 03:10:14;;;;;;;1.35;1.20;;;;;;;;;;5054259;28;20099;-80
2023/06/01 03:12:40;;;;;;;2.28;1.52;;;;;;;;;;5053896;28;20072;-80
2023/06/01 03:15:07;;;;;;;2.90;1.70;;;;;;;;;;5054236;28;20021;-80
2023/06/01 03:17:33;;;;;;;1.73;1.35;;;;;;;;;;5053834;28;20040;-80
2023/06/01 03:20:00;;;;;;;3.38;1.42;;;;;;;;;;5054145;28;20497;-80
2023/06/01 03:22:26;;;;;;;1.58;1.27;;;;;;;;;;5053813;28;20036;-80
2023/06/01 03:24:54;;;;;;;3.28;1.58;;;;;;;;;;5053741;28;20025;-80
2023/06/01 03:27:21;;;;;;;2.58;1.50;;;;;;;;;;5053853;28;20502;-80
2023/06/01 03:29:47;;;;;;;2.47;1.40;;;;;;;;;;5053776;28;20391;-80
2023/06/01 03:32:14;;;;;;;1.40;1.30;;;;;;;;;;5053786;28;20037;-79
2023/06/01 03:34:41;;;;;;;1.85;1.42;;;;;;;;;;5053382;28;20046;-79
2023/06/01 03:37:07;;;;;;;1.67;1.30;;;;;;;;;;5053758;28;20033;-79
2023/06/01 03:39:35;;;;;;;2.05;1.52;;;21.70;56.10;;;;;;5053338;28;20463;-80
2023/06/01 03:42:02;;;;;;;1.98;1.38;;;;;;;;;;5053321;28;20456;-80
2023/06/01 03:44:28;;;;;;;2.35;1.40;;;;;;;;;;5053531;28;20025;-79
2023/06/01 03:46:55;;;;;;;1.60;1.30;;;;;;;;;;5053711;28;20093;-80
2023/06/01 03:49:21;;;;;;;2.10;1.23;;;;;;;;;;5053557;28;20029;-80
2023/06/01 03:51:47;;;;;;;1.50;1.40;;;;;;;;;;5053062;28;20086;-79
2023/06/01 03:54:13;;;;;;;1.70;1.13;;;21.70;87.80;;;;;;5053218;28;20383;-80
2023/06/01 03:56:39;;;;;;;1.27;1.15;;;;;;;;;;5053153;28;20029;-80
2023/06/01 03:59:06;;;;;;;2.45;1.40;;;21.70;77.80;;;;;;5053132;28;20029;-79
2023/06/01 04:01:33;;;;;;;2.00;1.50;;;;;;;;;;5052885;28;20033;-79
2023/06/01 04:03:59;;;;;;;2.22;1.40;;;;;;;;;;5053132;28;20052;-79
2023/06/01 04:06:29;;;;;;;1.92;1.38;;;;;;;;;;5053106;28;20467;-79
2023/06/01 04:08:58;;;;;;;2.70;1.67;;;;;;;;;;5053018;28;20040;-79
2023/06/01 04:11:24;;;;;;;1.58;1.38;;;;;;;;;;5053215;28;20037;-79
2023/06/01 04:13:50;;;;;;;1.88;1.40;;;;;;;;;;5052738;28;20052;-79
2023/06/01 04:16:16;;;;;;;1.77;1.52;;;;;;;;;;5052787;28;20483;-80
2023/06/01 04:18:42;;;;;;;1.88;1.38;;;;;;;;;;5052837;28;20025;-79
2023/06/01 04:21:09;;;;;;;1.63;1.35;;;;;;;;;;5052636;28;20079;-80
2023/06/01 04:23:35;;;;;;;1.40;1.17;;;;;;;;;;5052781;28;20498;-80
2023/06/01 04:26:02;;;;;;;1.58;1.15;;;;;;;;;;5052442;28;20033;-80
2023/06/01 04:28:28;;;;;;;1.50;1.38;;;;;;;;;;5052786;28;20025;-80
2023/06/01 04:30:55;;;;;;;2.40;1.55;;;;;;;;;;5052885;28;20112;-80
2023/06/01 04:33:22;;;;;;;2.38;1.58;;;;;;;;;;5052557;28;20033;-80
2023/06/01 04:35:48;;;;;;;2.15;1.70;;;;;;;;;;5052426;28;20021;-80
2023/06/01 04:38:16;;;;;;;1.95;1.75;;;;;;;;;;5051303;28;20024;-80
2023/06/01 04:40:44;;;;;;;3.28;1.52;;;;;;;;;;5052226;28;20040;-79
2023/06/01 04:43:11;;;;;;;3.50;1.50;;;;;;;;;;5050976;28;20498;-80
2023/06/01 04:45:38;;;;;;;1.83;1.52;;;;;;;;;;5052511;28;20476;-80
2023/06/01 04:48:08;;;;;;;2.67;1.40;;;;;;;;;;5052517;28;20497;-80
2023/06/01 04:50:34;;;;;;;3.50;1.60;;;;;;;;;;5052214;28;20120;-80
2023/06/01 04:53:00;;;;;;;1.98;1.50;;;;;;;;;;5052056;28;20113;-79
2023/06/01 04:55:27;;;;;;;2.53;1.50;;;;;;;;;;5052181;28;20425;-80
2023/06/01 04:57:53;;;;;;;1.80;1.40;;;;;;;;;;5052079;28;20090;-79
2023/06/01 05:00:19;;;;;;;1.55;1.40;;;;;;;;;;5052091;28;20052;-79
2023/06/01 05:02:47;;;;;;;1.45;1.35;;;21.20;58.30;;;;;;5052321;28;20035;-79
2023/06/01 05:05:14;;;;;;;2.58;1.50;;;21.20;57.70;;;;;;5052050;28;20052;-79
2023/06/01 05:07:41;;;;;;;2.47;1.50;;;;;;;;;;5052085;28;20112;-80
2023/06/01 05:10:08;;;;;;;1.08;0.98;;;21.20;59.90;;;;;;5052014;28;20464;-79
2023/06/01 05:12:35;;;;;;;2.47;1.77;;;21.10;60.30;;;;;;5051766;28;20063;-79
2023/06/01 05:15:08;;;;;;;2.75;1.70;;;21.10;58.40;;;;;;5052139;28;20026;-79
2023/06/01 05:17:34;;;;;;;1.95;1.77;;;;;;;;;;5052310;28;20029;-79
2023/06/01 05:20:00;;;;;;;2.40;1.60;;;;;;;;;;5052004;28;20032;-79
2023/06/01 05:22:26;;;;;;;2.35;1.63;;;;;;;;;;5051831;28;20021;-78
2023/06/01 05:24:52;;;;;;;2.50;1.75;;;;;;;;;;5051924;28;20430;-80
2023/06/01 05:27:18;;;;;;;2.65;1.60;;;;;;;;;;5051771;28;20036;-78
2023/06/01 05:29:44;;;;;;;2.25;1.40;;;;;;;;;;5051828;28;20103;-82
2023/06/01 05:32:10;;;;;;;2.47;1.70;;;;;;;;;;5051672;28;20037;-81
2023/06/01 05:34:36;;;;;;;2.92;1.70;;;;;;;;;;5051873;28;20089;-81
2023/06/01 05:37:03;;;;;;;2.30;1.50;;;;;;;;;;5051832;28;20037;-81
2023/06/01 05:39:29;;;;;;;2.63;1.70;;;;;;;;;;5052041;28;20113;-84
2023/06/01 05:41:55;;;;;;;2.83;1.40;;;;;;;;;;5051843;28;20033;-82
2023/06/01 05:44:21;;;;;;;2.50;1.40;;;;;;;;;;5051793;28;20371;-82
2023/06/01 05:46:49;;;;;;;4.20;1.90;;;;;;;;;;5051849;28;20372;-80
2023/06/01 05:49:15;;;;;;;2.33;1.63;;;;;;;;;;5051921;28;20404;-81
2023/06/01 05:51:42;;;;;;;3.08;1.60;;;;;;;;;;5051681;28;20404;-81
2023/06/01 05:54:08;;;;;;;2.38;1.58;;;;;;;;;;5053430;28;20017;-82
2023/06/01 05:56:37;;;;;;;2.47;1.65;;;;;;;;;;5055457;28;20057;-82
2023/06/01 05:59:03;;;;;;;2.33;1.52;;;;;;;;;;5055397;28;20493;-82
2023/06/01 06:01:29;;;;;;;3.17;1.85;;;;;;;;;;5055232;28;20060;-82
2023/06/01 06:03:55;;;;;;;1.90;1.60;;;;;;;;;;5054084;28;20502;-83
2023/06/01 06:06:22;;;;;;;2.33;1.55;;;;;;;;;;5055048;28;20112;-83
2023/06/01 06:08:48;;;;;;;3.60;1.70;;;;;;;;;;5055171;28;20100;-83
2023/06/01 06:11:15;;;;;;;2.90;2.00;;;;;;;;;;5054894;28;20033;-83
2023/06/01 06:13:41;;;;;;;3.13;1.80;;;;;;;;;;5055040;28;20052;-83
2023/06/01 06:16:07;;;;;;;5.03;2.03;;;;;;;;;;5055053;28;20368;-83
2023/06/01 06:18:33;;;;;;;1.50;1.25;;;;;;;;;;5054885;28;20043;-83
2023/06/01 06:20:58;;;;;;;2.72;1.67;;;;;;;;;;5054904;28;20421;-83
2023/06/01 06:23:24;;;;;;;1.92;1.45;;;;;;;;;;5054768;28;20055;-83
2023/06/01 06:25:50;;;;;;;4.07;1.92;;;;;;;;;;5054857;28;20112;-83
2023/06/01 06:28:16;;;;;;;4.40;1.67;;;;;;;;;;5055031;28;20032;-82
2023/06/01 06:30:42;;;;;;;3.28;1.85;;;;;;;;;;5054613;28;20076;-83
2023/06/01 06:33:08;;;;;;;3.03;1.73;;;;;;;;;;5054697;28;20101;-83
2023/06/01 06:35:34;;;;;;;2.25;1.80;;;;;;;;;;5054629;28;20394;-82
2023/06/01 06:38:00;;;;;;;3.55;2.20;;;;;;;;;;5054696;28;20032;-83
2023/06/01 06:40:27;;;;;;;2.00;1.60;;;;;;;;;;5054478;28;20029;-82
2023/06/01 06:42:53;;;;;;;3.83;1.80;;;;;;;;;;5054513;28;20057;-83
2023/06/01 06:45:19;;;;;;;4.70;2.00;;;;;;;;;;5054446;28;20032;-82
2023/06/01 06:47:46;;;;;;;4.82;1.92;;;;;;;;;;5054423;28;20025;-80
2023/06/01 06:50:12;;;;;;;2.67;1.73;;;21.00;56.10;;;;;;5054494;28;20479;-81
2023/06/01 06:52:38;;;;;;;2.70;1.77;;;;;;;;;;5054538;28;20044;-80
2023/06/01 06:55:05;;;;;;;3.75;2.00;;;;;;;;;;5054513;28;20025;-78
2023/06/01 06:57:31;;;;;;;3.05;2.05;;;;;;;;;;5054528;28;20025;-79
2023/06/01 06:59:57;;;;;;;7.03;1.85;;;;;;;;;;5054609;28;20024;-78
2023/06/01 07:02:24;;;;;;;2.78;1.80;;;;;;;;;;5054464;28;20488;-78
2023/06/01 07:04:51;;;;;;;3.42;2.17;;;;;;;;;;5053977;28;20408;-77
2023/06/01 07:07:17;;;;;;;2.95;1.80;;;;;;;;;;5054009;28;20025;-76
2023/06/01 07:09:43;;;;;;;3.40;2.00;;;;;;;;;;5054057;28;20086;-77
2023/06/01 07:12:09;;;;;;;7.68;2.08;;;;;;;;;;5053659;28;20041;-78
2023/06/01 07:14:36;;;;;;;2.47;1.85;;;;;;;;;;5053817;28;20029;-76
2023/06/01 07:17:02;;;;;;;6.13;2.40;;;;;;;;;;5053868;28;20132;-79
2023/06/01 07:19:32;;;;;;;3.80;2.00;;;;;;;;;;5053832;28;20025;-78
2023/06/01 07:21:59;;;;;;;3.53;2.03;;;;;;;;;;5053677;28;20112;-78
2023/06/01 07:24:26;;;;;;;3.55;1.88;;;;;;;;;;5053967;28;20079;-78
2023/06/01 07:26:53;;;;;;;3.60;1.75;;;;;;;;;;5053622;28;20080;-79
2023/06/01 07:29:19;;;;;;;5.90;2.28;;;;;;;;;;5053790;28;20071;-83
2023/06/01 07:31:45;;;;;;;4.05;2.25;;;;;;;;;;5053449;28;20136;-78
2023/06/01 07:34:12;;;;;;;3.60;2.30;;;;;;;;;;5053527;28;20035;-79
2023/06/01 07:36:38;;;;;;;2.95;1.80;;;;;;;;;;5053695;28;20025;-80
2023/06/01 07:39:08;;;;;;;4.05;2.60;;;;;;;;;;5053572;28;20056;-80
2023/06/01 07:41:35;;;;;;;4.47;2.47;;;;;;;;;;5053807;28;20094;-80
2023/06/01 07:44:01;;;;;;;5.47;2.20;;;;;;;;;;5053539;28;20025;-80
2023/06/01 07:46:27;;;;;;;4.13;2.28;;;;;;;;;;5052503;28;20503;-80
2023/06/01 07:48:53;;;;;;;4.30;2.35;;;;;;;;;;5053282;28;20044;-80
2023/06/01 07:51:19;;;;;;;3.85;2.08;;;;;;;;;;5053170;28;20037;-79
2023/06/01 07:53:45;;;;;;;2.42;2.00;;;;;;;;;;5053155;28;20033;-80
2023/06/01 07:56:11;;;;;;;6.88;2.42;;;;;;;;;;5053169;28;20036;-80
2023/06/01 07:58:37;;;;;;;2.60;1.90;;;;;;;;;;5053112;28;20052;-85
2023/06/01 08:01:04;;;;;;;4.85;2.42;;;21.20;58.90;;;;;;5051757;28;20502;-84
2023/06/01 08:03:33;;;;;;;3.55;2.22;;;;;;;;;;5053510;28;20395;-84
2023/06/01 08:06:04;;;;;;;4.40;2.50;;;;;;;;;;5052888;28;20071;-83
2023/06/01 08:08:30;;;;;;;5.32;2.53;;;;;;;;;;5053223;28;20029;-82
2023/06/01 08:10:56;;;;;;;4.65;2.60;;;;;;;;;;5052736;28;20474;-80
2023/06/01 08:13:25;;;;;;;3.17;2.55;;;;;;;;;;5052634;28;20080;-79
2023/06/01 08:15:52;;;;;;;3.75;2.10;;;;;;;;;;5052107;28;20415;-83
2023/06/01 08:18:19;;;;;;;3.70;1.88;;;;;;;;;;5052617;28;20112;-79
2023/06/01 08:20:45;;;;;;;1.92;1.83;;;;;;;;;;5052681;28;20036;-78
2023/06/01 08:23:11;;;;;;;4.05;2.60;;;;;;;;;;5052846;28;20033;-77
2023/06/01 08:25:38;;;;;;;3.65;2.30;;;;;;;;;;5052708;28;20037;-77
2023/06/01 08:28:04;;;;;;;3.58;2.20;;;;;;;;;;5052643;28;20461;-77
2023/06/01 08:30:30;;;;;;;4.32;2.00;;;;;;;;;;5052531;28;20033;-78
2023/06/01 08:32:57;;;;;;;4.25;2.15;;;;;;;;;;5052619;28;20123;-78
2023/06/01 08:35:25;;;;;;;4.60;2.63;;;;;;;;;;5052494;28;20064;-77
2023/06/01 08:37:51;;;;;;;3.95;2.45;;;;;;;;;;5052386;28;20044;-78
2023/06/01 08:40:17;;;;;;;4.70;2.30;;;;;;;;;;5052444;28;20460;-77
2023/06/01 08:42:48;;;;;;;4.07;2.30;;;21.40;56.60;;;;;;5052391;28;20029;-78
2023/06/01 08:45:14;;;;;;;3.10;2.33;;;;;;;;;;5053585;28;20029;-77
2023/06/01 08:47:41;;;;;;;3.47;2.30;;;21.40;57.70;;;;;;5052427;28;20025;-75
2023/06/01 08:50:10;;;;;;;3.42;2.25;;;21.50;57.30;;;;;;5052380;28;20029;-74
2023/06/01 08:52:38;;;;;;;2.70;2.50;;;21.50;56.10;;;;;;5052493;28;20037;-76
2023/06/01 08:55:05;;;;;;;3.45;2.20;;;21.50;54.40;;;;;;5052376;28;20028;-76
2023/06/01 08:57:32;;;;;;;4.90;2.47;;;;;;;;;;5052489;28;20083;-77
2023/06/01 08:59:59;;;;;;;4.45;2.30;;;21.50;59.60;;;;;;5052064;28;20063;-78
2023/06/01 09:02:27;;;;;;;3.42;2.55;;;21.60;59.90;;;;;;5052260;28;20029;-76
2023/06/01 09:04:54;;;;;;;2.85;1.98;;;;;;;;;;5052265;28;20463;-75
2023/06/01 09:07:20;;;;;;;3.78;2.00;;;;;;;;;;5052300;28;20025;-75
2023/06/01 09:09:46;;;;;;;3.15;2.40;;;;;;;;;;5051902;28;20021;-75
2023/06/01 09:12:24;;;;;;;3.25;2.30;;;21.60;56.70;;;;;;5051854;28;20430;-77
2023/06/01 09:14:51;;;;;;;4.93;2.20;;;21.70;59.10;;;;;;5052106;28;20053;-75
2023/06/01 09:17:23;;;;;;;4.65;2.28;;;21.70;56.80;;;;;;5052027;28;20033;-76
2023/06/01 09:19:56;;;;;;;4.63;2.70;;;21.70;57.10;;;;;;5052041;28;20033;-79
2023/06/01 09:22:22;;;;;;;3.47;2.13;;;;;;;;;;5051931;28;20029;-77
2023/06/01 09:24:58;;;;;;;3.55;2.50;;;;;;;;;;5051774;28;20083;-78
2023/06/01 09:27:25;;;;;;;4.28;2.42;;;;;;;;;;5052836;28;20036;-78
2023/06/01 09:30:01;;;;;;;4.28;2.25;;;21.90;60.00;;;;;;5055993;28;20021;-81
2023/06/01 09:32:27;;;;;;;5.32;2.45;;;;;;;;;;5055897;28;20116;-80
2023/06/01 09:34:55;;;;;;;4.93;2.63;;;;;;;;;;5055958;28;20055;-81
2023/06/01 09:37:21;;;;;;;4.93;2.50;;;;;;;;;;5055951;28;20486;-80
2023/06/01 09:39:47;;;;;;;4.45;2.53;;;;;;;;;;5055843;28;20033;-81
2023/06/01 09:42:13;;;;;;;3.55;2.40;;;;;;;;;;5055671;28;20040;-80
2023/06/01 09:44:40;;;;;;;4.50;2.47;;;22.40;60.90;;;;;;5055881;28;20056;-81
2023/06/01 09:47:12;;;;;;;5.03;2.80;;;22.40;56.20;;;;;;5056001;28;20478;-81
2023/06/01 09:49:39;;;;;;;3.65;2.40;;;;;;;;;;5055736;28;20025;-80
2023/06/01 09:52:05;;;;;;;4.05;2.08;;;;;;;;;;5055591;28;20373;-80
2023/06/01 09:54:37;;;;;;;2.58;2.22;;;22.40;56.00;;;;;;5055786;28;20029;-80
2023/06/01 09:57:03;;;;;;;3.15;2.08;;;;;;;;;;5055666;28;20021;-80
2023/06/01 09:59:42;;;;;;;3.20;2.22;;;22.70;61.20;;;;;;5055619;28;20071;-81
2023/06/01 10:02:15;;;;;;;2.38;1.90;;;22.70;61.50;;;;;;5055389;28;20021;-80
2023/06/01 10:04:57;;;;;;;3.35;2.13;;;22.80;61.30;;;;;;5055526;28;20098;-81
2023/06/01 10:07:33;;;;;;;3.78;2.67;;;22.80;61.50;;;;;;5055384;28;20100;-81
2023/06/01 10:10:02;;;;;;;5.22;2.65;;;22.90;61.20;;;;;;5055276;28;20078;-79
2023/06/01 10:12:28;;;;;;;3.22;2.50;;;;;;;;;;5055076;28;20052;-82
2023/06/01 10:14:56;;;;;;;3.90;2.35;;;23.00;60.80;;;;;;5055506;28;20029;-85
2023/06/01 10:17:22;;;;;;;3.47;2.40;;;;;;;;;;5055293;28;20025;-84
2023/06/01 10:19:49;;;;;;;4.57;2.78;;;;;;;;;;5055038;28;20025;-85
2023/06/01 10:22:16;;;;;;;3.15;2.15;;;;;;;;;;5055196;28;20025;-83
2023/06/01 10:24:43;;;;;;;4.32;2.53;;;23.30;59.60;;;;;;5055284;28;20256;-82
2023/06/01 10:27:20;;;;;;;5.32;2.58;;;23.30;55.50;;;;;;5055697;28;20024;-83
2023/06/01 10:29:47;;;;;;;4.03;2.83;;;;;;;;;;5054950;28;20021;-81
2023/06/01 10:32:48;;;;;;;3.47;2.20;;;23.40;55.20;;;;;;5055055;28;20110;-82
2023/06/01 10:35:26;;;;;;;4.70;2.53;;;23.50;54.60;;;;;;5032320;28;20596;-82
2023/06/01 10:38:12;;;;;;;3.63;2.40;;;23.50;54.60;;;;;;5052086;28;20044;-78
2023/06/01 10:40:46;;;;;;;3.78;2.38;;;23.60;57.40;;;;;;5053820;28;20476;-80
2023/06/01 10:43:36;;;;;;;4.60;2.50;;;23.60;55.00;;;;;;5054727;28;20384;-81
2023/06/01 10:46:02;;;;;;;3.20;2.42;;;;;;;;;;5054608;28;20079;-83
2023/06/01 10:49:00;;;;;;;5.50;2.20;;;23.70;55.30;;;;;;5054710;28;20041;-81
2023/06/01 10:51:27;;;;;;;3.85;2.65;;;;;;;;;;5042446;28;20098;-80
2023/06/01 10:53:54;;;;;;;3.35;2.30;;;;;;;;;;5054873;28;20454;-80
2023/06/01 10:56:25;;;;;;;5.93;3.33;;;24.00;59.80;;;;;;5054372;28;20503;-80
2023/06/01 10:59:09;;;;;;;4.43;2.80;;;24.00;54.10;;;;;;5054790;28;20090;-80
2023/06/01 11:01:37;;;;;;;3.05;2.42;;;24.10;56.60;;;;;;5054466;28;20371;-80
2023/06/01 11:04:04;;;;;;;4.78;2.38;;;;;;;;;;5054276;28;20025;-80
2023/06/01 11:06:39;;;;;;;6.32;3.35;;;24.20;57.90;;;;;;5053169;28;20029;-80
2023/06/01 11:09:08;;;;;;;4.45;2.78;;;24.30;57.90;;;;;;5054399;28;20028;-80
2023/06/01 11:11:55;;;;;;;5.80;2.97;;;24.30;53.70;;;;;;5053878;28;20108;-80
2023/06/01 11:14:23;;;;;;;5.35;2.55;;;24.40;59.50;;;;;;5053969;28;20141;-80
2023/06/01 11:16:50;;;;;;;4.85;3.20;;;;;;;;;;5054280;28;20028;-81
2023/06/01 11:19:27;;;;;;;5.15;3.10;;;24.50;55.20;;;;;;5054176;28;20029;-79
2023/06/01 11:22:04;;;;;;;6.00;3.15;;;24.80;53.90;;;;;;5054194;28;20038;-79
2023/06/01 11:24:35;;;;;;;3.55;2.80;;;24.70;53.60;;;;;;5054008;28;20425;-78
2023/06/01 11:27:09;;;;;;;4.97;2.40;;;24.70;53.50;;;;;;5053725;28;20049;-83
2023/06/01 11:29:36;;;;;;;4.47;2.85;;;;;;;;;;5052654;28;20041;-83
2023/06/01 11:32:05;;;;;;;5.20;2.83;;;24.80;58.80;;;;;;5052481;28;20071;-83
2023/06/01 11:34:41;;;;;;;3.72;2.80;;;24.90;53.30;;;;;;5035992;28;20029;-83
2023/06/01 11:37:25;;;;;;;2.95;2.20;;;;;;;;;;5050993;28;20441;-83
2023/06/01 11:39:51;;;;;;;4.22;2.47;;;;;;;;;;5053429;28;20045;-83
2023/06/01 11:42:19;;;;;;;4.07;2.72;;;25.00;58.70;;;;;;5052255;28;20060;-84
2023/06/01 11:44:56;;;;;;;3.72;2.67;;;25.00;55.90;;;;;;5035925;28;20031;-83
2023/06/01 11:47:22;;;;;;;6.75;2.90;;;;;;;;;;5037520;28;20104;-83
2023/06/01 11:49:50;;;;;;;4.45;2.40;;;25.10;50.90;;;;;;5052378;28;20103;-83
2023/06/01 11:52:17;;;;;;;4.65;3.00;;;25.20;49.50;;;;;;5034472;28;20098;-83
2023/06/01 11:54:44;;;;;;;3.17;2.13;;;25.80;87.60;;;;;;5036018;28;20031;-83
2023/06/01 11:57:11;;;;;;;3.53;2.42;;;;;;;;;;5052298;28;20080;-83
2023/06/01 11:59:47;;;;;;;4.35;2.50;;;25.40;58.10;;;;;;5052168;28;20087;-83
2023/06/01 12:02:26;;;;;;;3.78;2.67;;;25.60;52.20;;;;;;5053425;28;20060;-83
2023/06/01 12:05:01;;;;;;;5.50;2.42;;;25.60;52.40;;;;;;5052144;28;20031;-83
2023/06/01 12:07:28;;;;;;;4.53;2.10;;;;;;;;;;5052990;28;20047;-83
2023/06/01 12:09:56;;;;;;;6.85;2.58;;;25.70;57.80;;;;;;5051602;28;20028;-83
2023/06/01 12:12:24;;;;;;;3.50;2.45;;;25.80;54.70;;;;;;5035223;28;20037;-82
2023/06/01 12:14:51;;;;;;;3.08;2.03;;;;;;;;;;5035246;28;20021;-83
2023/06/01 12:17:17;;;;;;;3.92;2.47;;;;;;;;;;5053072;28;20040;-83
2023/06/01 12:19:47;;;;;;;3.08;2.35;;;25.80;49.20;;;;;;5053032;28;20092;-83
2023/06/01 12:22:15;;;;;;;;;;;25.90;55.20;;;;;;5053500;28;20025;-83
2023/06/01 12:24:43;;;;;;;3.40;2.08;;;;;;;;;;5052740;28;20362;-82
2023/06/01 12:27:17;;;;;;;2.97;1.98;;;26.00;52.40;;;;;;5052891;28;20029;-83
2023/06/01 12:29:46;;;;;;;2.80;2.45;;;25.90;58.50;;;;;;5052539;28;20395;-82
2023/06/01 12:32:15;;;;;;;3.28;2.10;;;26.00;56.10;;;;;;5052671;28;20533;-83
2023/06/01 12:34:48;;;;;;;4.35;2.83;;;26.10;54.10;;;;;;5052592;28;20135;-82
2023/06/01 12:37:15;;;;;;;3.65;2.42;;;26.10;57.00;;;;;;5052584;28;20033;-82
2023/06/01 12:39:42;;;;;;;5.05;2.88;;;;;;;;;;5052238;28;20124;-79
2023/06/01 12:42:09;;;;;;;5.20;2.58;;;;;;;;;;5052358;28;20033;-78
2023/06/01 12:44:36;;;;;;;3.42;2.20;;;;;;;;;;5052398;28;20104;-79
2023/06/01 12:47:03;;;;;;;4.50;2.90;;;;;;;;;;5052358;28;20453;-79
2023/06/01 12:49:30;;;;;;;4.97;3.25;;;;;;;;;;5052367;28;20041;-79
2023/06/01 12:51:56;;;;;;;4.65;3.08;;;;;;;;;;5051965;28;20381;-79
2023/06/01 12:54:22;;;;;;;5.53;3.20;;;;;;;;;;5052101;28;20027;-79
2023/06/01 12:56:49;;;;;;;3.83;2.88;;;26.50;55.10;;;;;;5051929;28;20040;-78
2023/06/01 12:59:16;;;;;;;3.25;2.45;;;;;;;;;;5052005;28;20020;-79
2023/06/01 13:01:42;;;;;;;2.85;2.17;;;;;;;;;;5052018;28;20037;-79
2023/06/01 13:04:08;;;;;;;2.17;1.98;;;;;;;;;;5051578;28;20075;-79
2023/06/01 13:06:35;;;;;;;5.20;3.20;;;;;;;;;;5052161;28;20373;-79
2023/06/01 13:09:01;;;;;;;2.90;1.80;;;;;;;;;;5052116;28;20028;-79
2023/06/01 13:11:28;;;;;;;2.80;2.17;;;;;;;;;;5051845;28;20069;-80
2023/06/01 13:13:55;;;;;;;6.35;3.10;;;;;;;;;;5051720;28;20077;-79
2023/06/01 13:16:21;;;;;;;5.35;3.70;;;;;;;;;;5051795;28;20061;-79
2023/06/01 13:18:50;;;;;;;4.60;3.22;;;;;;;;;;5051825;28;20025;-79
2023/06/01 13:21:16;;;;;;;3.63;2.40;;;;;;;;;;5051690;28;20428;-79
2023/06/01 13:23:43;;;;;;;5.60;2.72;;;;;;;;;;5051696;28;20116;-79
2023/06/01 13:26:09;;;;;;;4.53;2.70;;;;;;;;;;5051872;28;20024;-79
2023/06/01 13:28:35;;;;;;;5.90;2.97;;;;;;;;;;5051836;28;20364;-79
2023/06/01 13:31:01;;;;;;;3.83;2.50;;;;;;;;;;5051802;28;20029;-79
2023/06/01 13:33:28;;;;;;;4.43;2.20;;;;;;;;;;5052028;28;20451;-79
2023/06/01 13:35:54;;;;;;;4.13;2.30;;;;;;;;;;5052043;28;20036;-79
2023/06/01 13:38:20;;;;;;;6.47;3.00;;;;;;;;;;5051891;28;20025;-81
2023/06/01 13:40:46;;;;;;;2.20;2.03;;;;;;;;;;5051689;28;20032;-80
2023/06/01 13:43:12;;;;;;;3.92;1.90;;;;;;;;;;5051594;28;20633;-80
2023/06/01 13:45:38;;;;;;;3.25;2.63;;;;;;;;;;5051642;28;20107;-80
2023/06/01 13:48:04;;;;;;;5.05;2.53;;;;;;;;;;5051637;28;20122;-80
2023/06/01 13:50:30;;;;;;;5.10;2.63;;;;;;;;;;5051534;28;20021;-80
2023/06/01 13:52:57;;;;;;;5.15;2.60;;;;;;;;;;5051469;28;20040;-81
2023/06/01 13:55:24;;;;;;;3.58;2.53;;;;;;;;;;5051583;28;20082;-82
2023/06/01 13:57:50;;;;;;;3.92;2.35;;;27.30;81.10;;;;;;5051520;28;20028;-82
2023/06/01 14:00:17;;;;;;;4.28;2.60;;;;;;;;;;5051684;28;20079;-81
2023/06/01 14:02:43;;;;;;;3.10;2.22;;;;;;;;;;5050719;28;20033;-82
2023/06/01 14:05:12;;;;;;;3.15;2.30;;;;;;;;;;5051485;28;20021;-81
2023/06/01 14:07:38;;;;;;;5.25;2.38;;;;;;;;;;5052273;28;20376;-82
2023/06/01 14:10:04;;;;;;;2.92;2.08;;;27.30;72.60;;;;;;5052051;28;20081;-82
2023/06/01 14:12:30;;;;;;;4.57;2.28;;;;;;;;;;5051912;28;20399;-82
2023/06/01 14:14:56;;;;;;;4.03;2.38;;;27.10;65.90;;;;;;5053409;28;20479;-81